Αναφορές Αεροδρομίων

 

KSJC - San Jose, California, USA
Distance from station: ΒΑ 14km
Ενημερώθηκε: 23/09/2019 08:39
Λίγα Σύννεφα
Λίγα Σύννεφα
 Ανεμος από calm
Ανεμος: Απνοια
Θερμοκρασία: 18°C
Σημείο Δρόσου: 14°C
Υγρασία: 78%
Βαρόμετρο: 1014.2 hPa
Clouds: Λίγα Σύννεφα
Visibility: 16 km
Cloud details: Λίγα Σύννεφα 30 m
Λίγα Σύννεφα 305 m
2019/09/23 05:39 KSJC 230539Z 00000KT 10SM FEW001 FEW010 18/14 A2995 RMK AO2 T01780139 $
KNUQ - Moffett Nas/Mtn, California, USA
Distance from station: Β 14km
Ενημερώθηκε: 23/09/2019 07:56

 
Βαρόμετρο: 1014.2 hPa
2019/09/23 04:56 KNUQ 230456Z A2995 RMK AO2 SLP146 PWINO $
 
KPAO - Palo Alto, California, USA
Distance from station: ΒΒΔ 23km
Ενημερώθηκε: 23/09/2019 06:47
NOT Current
Λίγα Σύννεφα
Λίγα Σύννεφα
 Ανεμος από ΒΒΔ
Ανεμος: ΒΒΔ 19 km/h
Θερμοκρασία: 19°C
Σημείο Δρόσου: 13°C
Υγρασία: 68%
Βαρόμετρο: 1013.5 hPa
Clouds: Λίγα Σύννεφα
Visibility: 16 km
Cloud details: Λίγα Σύννεφα 3658 m
2019/09/23 03:47 KPAO 230347Z 33010KT 10SM FEW120 19/13 A2993 RMK LAST
KRHV - San Jose/Reid, California, USA
Distance from station: ΑΒΑ 19km
Ενημερώθηκε: 23/09/2019 07:50
Αίθριος
Αίθριος
 Ανεμος από ΔΒΔ
Ανεμος: ΔΒΔ 7 km/h
Θερμοκρασία: 18°C
Σημείο Δρόσου: 13°C
Υγρασία: 73%
Βαρόμετρο: 1014.2 hPa
Clouds: Αίθριος
Visibility: 16 km
2019/09/23 04:50 KRHV 230450Z 29004KT 10SM SKC 18/13 A2995 RMK LAST
 
KOAK - Oakland, California, USA
Distance from station: ΒΒΔ 50km
Ενημερώθηκε: 23/09/2019 07:53
Λίγα Σύννεφα
Λίγα Σύννεφα
 Ανεμος από Δ
Ανεμος: Δ 11 km/h
Θερμοκρασία: 18°C
Σημείο Δρόσου: 14°C
Υγρασία: 78%
Βαρόμετρο: 1013.9 hPa
Clouds: Λίγα Σύννεφα
Visibility: 16 km
Cloud details: Λίγα Σύννεφα 305 m
2019/09/23 04:53 KOAK 230453Z 26006KT 10SM FEW010 18/14 A2994 RMK AO2 SLP137 T01780144
KSQL - San Carlos Airpo, California, USA
Distance from station: ΒΔ 34km
Ενημερώθηκε: 23/09/2019 06:49
NOT Current
Λίγα Σύννεφα
Λίγα Σύννεφα
 Ανεμος από ΔΝΔ
Ανεμος: ΔΝΔ 13 km/h
Θερμοκρασία: 18°C
Σημείο Δρόσου: 13°C
Υγρασία: 73%
Βαρόμετρο: 1013.9 hPa
Clouds: Λίγα Σύννεφα
Visibility: 16 km
Cloud details: Λίγα Σύννεφα 3658 m
2019/09/23 03:49 KSQL 230349Z 24007KT 10SM FEW120 18/13 A2994 RMK LAST
 
KSFO - San Francisco, California, USA
Distance from station: ΒΔ 49km
Ενημερώθηκε: 23/09/2019 07:56
Μερικώς νεφελώδης
Μερικώς νεφελώδης
 Ανεμος από Δ
Ανεμος: Δ 30 km/h
Θερμοκρασία: 18°C
Σημείο Δρόσου: 14°C
Υγρασία: 78%
Βαρόμετρο: 1013.5 hPa
Clouds: Μερικώς νεφελώδης
Visibility: 16 km
Cloud details: Λίγα Σύννεφα 213 m
Μερικώς νεφελώδης 4572 m
2019/09/23 04:56 KSFO 230456Z 28016KT 10SM FEW007 SCT150 18/14 A2993 RMK AO2 SLP136 T01780144
KE16 - San Martin, California, USA
Distance from station: ΑΝΑ 43km
Ενημερώθηκε: 23/09/2019 08:35
Αίθριος
Αίθριος
 Ανεμος από Β
Ανεμος: Β 7 km/h
Θερμοκρασία: 18°C
Σημείο Δρόσου: 12°C
Υγρασία: 68%
Βαρόμετρο: 1014.6 hPa
Clouds: Αίθριος
Visibility: 16 km
2019/09/23 05:35 KE16 230535Z AUTO 35004KT 10SM CLR 18/12 A2996 RMK AO2 PWINO PNO
 
KWVI - Watsonville, California, USA
Distance from station: ΝΝΑ 44km
Ενημερώθηκε: 23/09/2019 07:53
Αίθριος
Αίθριος
 Ανεμος από Β
Ανεμος: Β 6 km/h
Θερμοκρασία: 16°C
Σημείο Δρόσου: 12°C
Υγρασία: 77%
Βαρόμετρο: 1014.2 hPa
Clouds: Αίθριος
Visibility: 16 km
2019/09/23 04:53 KWVI 230453Z AUTO 01003KT 10SM CLR 16/12 A2995 RMK AO2 SLP141 T01560122 $
KHAF - Half Moon Bay, California, USA
Distance from station: ΔΒΔ 50km
Ενημερώθηκε: 23/09/2019 08:40
Συννεφιά
Συννεφιά
 Ανεμος από ΒΔ
Ανεμος: ΒΔ 15 km/h
Θερμοκρασία: 16°C
Σημείο Δρόσου: 15°C
Υγρασία: 94%
Βαρόμετρο: 1014.9 hPa
Clouds: Συννεφιά
Visibility: 11 km
Cloud details: Συννεφιά 183 m
2019/09/23 05:40 KHAF 230540Z AUTO 31008KT 7SM OVC006 16/15 A2997 RMK AO2
 
KHWD - Hayward, California, USA
Distance from station: Β 44km
Ενημερώθηκε: 23/09/2019 08:29
Μερικώς νεφελώδης
Μερικώς νεφελώδης
 Ανεμος από Ν
Ανεμος: Ν 6 km/h
Θερμοκρασία: 18°C
Σημείο Δρόσου: 14°C
Υγρασία: 78%
Βαρόμετρο: 1013.9 hPa
Clouds: Μερικώς νεφελώδης
Visibility: 16 km
Cloud details: Μερικώς νεφελώδης 427 m
2019/09/23 05:29 KHWD 230529Z AUTO 18003KT 10SM SCT014 18/14 A2994 RMK AO2 T01780144
KLVK - Livermore, California, USA
Distance from station: ΒΒΑ 51km
Ενημερώθηκε: 23/09/2019 07:53
Αίθριος
Αίθριος
 Ανεμος από Δ
Ανεμος: Δ 7 km/h
Θερμοκρασία: 17°C
Σημείο Δρόσου: 13°C
Υγρασία: 77%
Βαρόμετρο: 1013.5 hPa
Clouds: Αίθριος
Visibility: 16 km
2019/09/23 04:53 KLVK 230453Z 28004KT 10SM CLR 17/13 A2993 RMK AO2 SLP134 T01670133